sensor_id;sensor_type;location;lat;lon;timestamp;pressure;altitude;pressure_sealevel;temperature;humidity
51229;BME280;37304;52.216;6.874;2023-01-30T00:04:13;101342.69;;;3.02;100.00
51229;BME280;37304;52.216;6.874;2023-01-30T00:09:13;101340.25;;;3.09;100.00
51229;BME280;37304;52.216;6.874;2023-01-30T00:14:14;101355.81;;;3.15;100.00
51229;BME280;37304;52.216;6.874;2023-01-30T00:19:15;101349.88;;;3.17;100.00
51229;BME280;37304;52.216;6.874;2023-01-30T00:24:16;101335.38;;;3.19;100.00
51229;BME280;37304;52.216;6.874;2023-01-30T00:29:16;101330.22;;;3.19;100.00
51229;BME280;37304;52.216;6.874;2023-01-30T00:34:16;101319.19;;;3.25;100.00
51229;BME280;37304;52.216;6.874;2023-01-30T00:39:17;101305.53;;;3.26;100.00
51229;BME280;37304;52.216;6.874;2023-01-30T00:44:17;101289.31;;;3.29;100.00
51229;BME280;37304;52.216;6.874;2023-01-30T00:49:36;101266.38;;;3.37;100.00
51229;BME280;37304;52.216;6.874;2023-01-30T00:54:37;101251.91;;;3.43;100.00
51229;BME280;37304;52.216;6.874;2023-01-30T00:59:37;101245.09;;;3.45;100.00
51229;BME280;37304;52.216;6.874;2023-01-30T01:04:37;101243.53;;;3.52;100.00
51229;BME280;37304;52.216;6.874;2023-01-30T01:09:42;101229.00;;;3.54;100.00
51229;BME280;37304;52.216;6.874;2023-01-30T01:14:42;101218.75;;;3.56;100.00
51229;BME280;37304;52.216;6.874;2023-01-30T01:19:43;101199.06;;;3.58;100.00
51229;BME280;37304;52.216;6.874;2023-01-30T01:24:43;101195.66;;;3.59;100.00
51229;BME280;37304;52.216;6.874;2023-01-30T01:29:43;101195.72;;;3.62;100.00
51229;BME280;37304;52.216;6.874;2023-01-30T01:34:44;101185.47;;;3.63;100.00
51229;BME280;37304;52.216;6.874;2023-01-30T01:39:44;101172.66;;;3.65;100.00
51229;BME280;37304;52.216;6.874;2023-01-30T01:50:15;101160.84;;;3.76;100.00
51229;BME280;37304;52.216;6.874;2023-01-30T01:55:18;101176.34;;;3.81;100.00
51229;BME280;37304;52.216;6.874;2023-01-30T02:00:21;101167.03;;;3.88;100.00
51229;BME280;37304;52.216;6.874;2023-01-30T02:05:24;101137.97;;;3.92;100.00
51229;BME280;37304;52.216;6.874;2023-01-30T02:15:44;101157.97;;;4.10;100.00
51229;BME280;37304;52.216;6.874;2023-01-30T02:46:55;101124.31;;;4.59;100.00
51229;BME280;37304;52.216;6.874;2023-01-30T02:51:57;101120.94;;;4.63;100.00
51229;BME280;37304;52.216;6.874;2023-01-30T02:56:59;101108.09;;;4.66;100.00
51229;BME280;37304;52.216;6.874;2023-01-30T03:02:34;101098.72;;;4.70;100.00
51229;BME280;37304;52.216;6.874;2023-01-30T03:18:34;101088.41;;;4.72;100.00
51229;BME280;37304;52.216;6.874;2023-01-30T03:23:34;101076.41;;;4.72;100.00
51229;BME280;37304;52.216;6.874;2023-01-30T03:28:35;101082.44;;;4.76;100.00
51229;BME280;37304;52.216;6.874;2023-01-30T03:33:36;101062.69;;;4.75;100.00
51229;BME280;37304;52.216;6.874;2023-01-30T03:38:36;101080.72;;;4.75;100.00
51229;BME280;37304;52.216;6.874;2023-01-30T03:43:37;101071.31;;;4.75;100.00
51229;BME280;37304;52.216;6.874;2023-01-30T03:48:37;101074.72;;;4.74;100.00
51229;BME280;37304;52.216;6.874;2023-01-30T03:53:38;101071.34;;;4.80;100.00
51229;BME280;37304;52.216;6.874;2023-01-30T03:58:38;101075.63;;;4.81;100.00
51229;BME280;37304;52.216;6.874;2023-01-30T04:03:38;101070.50;;;4.81;100.00
51229;BME280;37304;52.216;6.874;2023-01-30T04:08:38;101076.53;;;4.83;100.00
51229;BME280;37304;52.216;6.874;2023-01-30T04:13:39;101085.97;;;4.84;100.00
51229;BME280;37304;52.216;6.874;2023-01-30T04:18:39;101087.69;;;4.85;100.00
51229;BME280;37304;52.216;6.874;2023-01-30T04:23:40;101076.59;;;4.88;100.00
51229;BME280;37304;52.216;6.874;2023-01-30T04:28:41;101073.16;;;4.90;100.00
51229;BME280;37304;52.216;6.874;2023-01-30T04:33:41;101076.66;;;4.95;100.00
51229;BME280;37304;52.216;6.874;2023-01-30T04:38:42;101080.16;;;5.01;100.00
51229;BME280;37304;52.216;6.874;2023-01-30T04:43:42;101096.50;;;5.04;100.00
51229;BME280;37304;52.216;6.874;2023-01-30T04:48:43;101078.53;;;5.10;100.00
51229;BME280;37304;52.216;6.874;2023-01-30T04:53:43;101085.44;;;5.15;100.00
51229;BME280;37304;52.216;6.874;2023-01-30T04:58:44;101088.09;;;5.22;100.00
51229;BME280;37304;52.216;6.874;2023-01-30T05:03:44;101074.41;;;5.30;100.00
51229;BME280;37304;52.216;6.874;2023-01-30T05:08:52;101067.59;;;5.33;100.00
51229;BME280;37304;52.216;6.874;2023-01-30T05:13:52;101066.72;;;5.34;100.00
51229;BME280;37304;52.216;6.874;2023-01-30T05:18:53;101052.19;;;5.43;100.00
51229;BME280;37304;52.216;6.874;2023-01-30T05:23:54;101065.94;;;5.45;100.00
51229;BME280;37304;52.216;6.874;2023-01-30T05:28:56;101066.81;;;5.48;100.00
51229;BME280;37304;52.216;6.874;2023-01-30T05:33:56;101060.78;;;5.43;100.00
51229;BME280;37304;52.216;6.874;2023-01-30T05:38:57;101061.56;;;5.31;100.00
51229;BME280;37304;52.216;6.874;2023-01-30T05:43:57;101058.84;;;5.17;100.00
51229;BME280;37304;52.216;6.874;2023-01-30T05:48:57;101011.38;;;4.92;100.00
51229;BME280;37304;52.216;6.874;2023-01-30T05:53:58;100989.72;;;4.73;100.00
51229;BME280;37304;52.216;6.874;2023-01-30T05:59:00;100991.47;;;4.72;100.00
51229;BME280;37304;52.216;6.874;2023-01-30T06:04:00;101013.75;;;4.72;100.00
51229;BME280;37304;52.216;6.874;2023-01-30T06:09:01;101010.28;;;4.70;100.00
51229;BME280;37304;52.216;6.874;2023-01-30T06:14:02;101025.75;;;4.70;100.00
51229;BME280;37304;52.216;6.874;2023-01-30T06:19:02;101030.97;;;4.74;100.00
51229;BME280;37304;52.216;6.874;2023-01-30T06:24:03;101043.91;;;4.80;100.00
51229;BME280;37304;52.216;6.874;2023-01-30T06:29:03;101062.75;;;4.79;100.00
51229;BME280;37304;52.216;6.874;2023-01-30T06:34:04;101059.25;;;4.71;100.00
51229;BME280;37304;52.216;6.874;2023-01-30T06:39:04;101057.47;;;4.64;100.00
51229;BME280;37304;52.216;6.874;2023-01-30T06:44:04;101052.22;;;4.56;100.00
51229;BME280;37304;52.216;6.874;2023-01-30T06:49:05;101055.69;;;4.61;100.00
51229;BME280;37304;52.216;6.874;2023-01-30T06:54:05;101064.38;;;4.68;100.00
51229;BME280;37304;52.216;6.874;2023-01-30T06:59:05;101062.66;;;4.70;100.00
51229;BME280;37304;52.216;6.874;2023-01-30T07:04:06;101076.50;;;4.80;100.00
51229;BME280;37304;52.216;6.874;2023-01-30T07:09:06;101074.72;;;4.74;100.00
51229;BME280;37304;52.216;6.874;2023-01-30T07:14:08;101074.59;;;4.63;100.00
51229;BME280;37304;52.216;6.874;2023-01-30T07:19:08;101076.13;;;4.47;100.00
51229;BME280;37304;52.216;6.874;2023-01-30T07:24:09;101076.09;;;4.46;100.00
51229;BME280;37304;52.216;6.874;2023-01-30T07:29:09;101082.81;;;4.33;100.00
51229;BME280;37304;52.216;6.874;2023-01-30T07:34:09;101085.28;;;4.28;100.00
51229;BME280;37304;52.216;6.874;2023-01-30T07:39:10;101091.28;;;4.26;100.00
51229;BME280;37304;52.216;6.874;2023-01-30T07:44:11;101084.25;;;4.14;100.00
51229;BME280;37304;52.216;6.874;2023-01-30T07:49:12;101095.38;;;4.13;100.00
51229;BME280;37304;52.216;6.874;2023-01-30T07:54:12;101100.53;;;4.13;100.00
51229;BME280;37304;52.216;6.874;2023-01-30T07:59:13;101097.16;;;4.15;100.00
51229;BME280;37304;52.216;6.874;2023-01-30T08:04:13;101092.84;;;4.16;100.00
51229;BME280;37304;52.216;6.874;2023-01-30T08:09:16;101097.19;;;4.20;100.00
51229;BME280;37304;52.216;6.874;2023-01-30T08:14:20;101107.56;;;4.26;100.00
51229;BME280;37304;52.216;6.874;2023-01-30T08:19:24;101115.47;;;4.40;100.00
51229;BME280;37304;52.216;6.874;2023-01-30T08:24:25;101120.97;;;4.66;100.00
51229;BME280;37304;52.216;6.874;2023-01-30T08:29:25;101113.44;;;4.85;100.00
51229;BME280;37304;52.216;6.874;2023-01-30T08:34:26;101122.06;;;4.87;100.00
51229;BME280;37304;52.216;6.874;2023-01-30T08:39:26;101129.09;;;5.01;100.00
51229;BME280;37304;52.216;6.874;2023-01-30T08:44:26;101131.72;;;5.05;100.00
51229;BME280;37304;52.216;6.874;2023-01-30T08:49:30;101133.59;;;5.22;100.00
51229;BME280;37304;52.216;6.874;2023-01-30T08:54:33;101132.72;;;5.20;100.00
51229;BME280;37304;52.216;6.874;2023-01-30T08:59:33;101130.13;;;5.18;100.00
51229;BME280;37304;52.216;6.874;2023-01-30T09:04:34;101121.59;;;5.24;100.00
51229;BME280;37304;52.216;6.874;2023-01-30T09:09:37;101116.53;;;5.30;100.00
51229;BME280;37304;52.216;6.874;2023-01-30T09:14:37;101109.66;;;5.32;100.00
51229;BME280;37304;52.216;6.874;2023-01-30T09:19:37;101111.41;;;5.36;100.00
51229;BME280;37304;52.216;6.874;2023-01-30T09:24:38;101117.44;;;5.37;100.00
51229;BME280;37304;52.216;6.874;2023-01-30T09:29:38;101119.06;;;5.29;100.00
51229;BME280;37304;52.216;6.874;2023-01-30T09:34:39;101131.97;;;5.32;100.00
51229;BME280;37304;52.216;6.874;2023-01-30T09:39:39;101144.00;;;5.30;100.00
51229;BME280;37304;52.216;6.874;2023-01-30T09:50:07;101143.97;;;5.27;100.00
51229;BME280;37304;52.216;6.874;2023-01-30T09:55:17;101149.97;;;5.27;100.00
51229;BME280;37304;52.216;6.874;2023-01-30T10:00:38;101144.84;;;5.29;100.00
51229;BME280;37304;52.216;6.874;2023-01-30T10:05:58;101165.56;;;5.41;100.00
51229;BME280;37304;52.216;6.874;2023-01-30T10:27:33;101163.09;;;5.52;100.00
51229;BME280;37304;52.216;6.874;2023-01-30T10:32:42;101160.66;;;5.66;100.00
51229;BME280;37304;52.216;6.874;2023-01-30T10:37:50;101164.28;;;5.87;100.00
51229;BME280;37304;52.216;6.874;2023-01-30T10:43:05;101167.00;;;6.02;100.00
51229;BME280;37304;52.216;6.874;2023-01-30T10:53:34;101161.13;;;6.25;100.00
51229;BME280;37304;52.216;6.874;2023-01-30T10:58:49;101156.78;;;6.21;100.00
51229;BME280;37304;52.216;6.874;2023-01-30T11:03:56;101168.19;;;6.57;100.00
51229;BME280;37304;52.216;6.874;2023-01-30T11:09:01;101168.25;;;6.66;100.00
51229;BME280;37304;52.216;6.874;2023-01-30T11:14:04;101161.47;;;6.98;100.00
51229;BME280;37304;52.216;6.874;2023-01-30T11:19:05;101157.16;;;6.88;100.00
51229;BME280;37304;52.216;6.874;2023-01-30T11:24:13;101166.63;;;6.93;100.00
51229;BME280;37304;52.216;6.874;2023-01-30T11:29:28;101157.97;;;6.85;100.00
51229;BME280;37304;52.216;6.874;2023-01-30T11:34:29;101157.06;;;6.70;100.00
51229;BME280;37304;52.216;6.874;2023-01-30T11:39:29;101132.94;;;6.62;100.00
51229;BME280;37304;52.216;6.874;2023-01-30T11:44:35;101173.47;;;6.74;100.00
51229;BME280;37304;52.216;6.874;2023-01-30T11:49:42;101170.88;;;6.76;100.00
51229;BME280;37304;52.216;6.874;2023-01-30T11:54:45;101184.50;;;6.48;100.00
51229;BME280;37304;52.216;6.874;2023-01-30T11:59:54;101198.25;;;6.43;100.00
51229;BME280;37304;52.216;6.874;2023-01-30T12:04:59;101192.28;;;6.56;100.00
51229;BME280;37304;52.216;6.874;2023-01-30T12:10:00;101172.50;;;6.55;100.00
51229;BME280;37304;52.216;6.874;2023-01-30T12:15:26;101197.41;;;6.51;100.00
51229;BME280;37304;52.216;6.874;2023-01-30T12:21:00;101207.63;;;6.33;100.00
51229;BME280;37304;52.216;6.874;2023-01-30T12:31:20;101188.78;;;6.43;100.00
51229;BME280;37304;52.216;6.874;2023-01-30T12:36:37;101205.19;;;6.53;100.00
51229;BME280;37304;52.216;6.874;2023-01-30T12:42:02;101217.25;;;6.55;100.00
51229;BME280;37304;52.216;6.874;2023-01-30T12:47:19;101205.28;;;6.68;100.00
51229;BME280;37304;52.216;6.874;2023-01-30T12:52:45;101204.47;;;6.85;100.00
51229;BME280;37304;52.216;6.874;2023-01-30T12:57:59;101201.09;;;6.94;100.00
51229;BME280;37304;52.216;6.874;2023-01-30T13:04:02;101209.75;;;7.08;100.00
51229;BME280;37304;52.216;6.874;2023-01-30T13:09:01;101218.38;;;7.03;100.00
51229;BME280;37304;52.216;6.874;2023-01-30T13:14:22;101234.63;;;6.83;100.00
51229;BME280;37304;52.216;6.874;2023-01-30T13:19:28;101255.84;;;6.35;100.00
51229;BME280;37304;52.216;6.874;2023-01-30T13:24:47;101293.72;;;5.50;100.00
51229;BME280;37304;52.216;6.874;2023-01-30T13:29:50;101317.81;;;4.90;100.00
51229;BME280;37304;52.216;6.874;2023-01-30T13:34:53;101311.44;;;4.63;100.00
51229;BME280;37304;52.216;6.874;2023-01-30T13:39:58;101309.50;;;6.77;100.00
51229;BME280;37304;52.216;6.874;2023-01-30T13:45:02;101293.63;;;8.59;100.00
51229;BME280;37304;52.216;6.874;2023-01-30T13:55:44;101304.84;;;8.13;100.00
51229;BME280;37304;52.216;6.874;2023-01-30T14:00:53;101328.50;;;6.83;100.00
51229;BME280;37304;52.216;6.874;2023-01-30T14:11:00;101323.66;;;6.17;100.00
51229;BME280;37304;52.216;6.874;2023-01-30T14:16:05;101320.25;;;6.20;100.00
51229;BME280;37304;52.216;6.874;2023-01-30T14:21:21;101349.47;;;6.17;100.00
51229;BME280;37304;52.216;6.874;2023-01-30T14:31:48;101371.72;;;6.06;100.00
51229;BME280;37304;52.216;6.874;2023-01-30T14:36:50;101382.88;;;6.03;100.00
51229;BME280;37304;52.216;6.874;2023-01-30T14:42:16;101381.16;;;6.05;100.00
51229;BME280;37304;52.216;6.874;2023-01-30T14:47:18;101392.38;;;6.06;100.00
51229;BME280;37304;52.216;6.874;2023-01-30T14:52:28;101397.47;;;6.01;100.00
51229;BME280;37304;52.216;6.874;2023-01-30T14:57:30;101409.56;;;6.05;100.00
51229;BME280;37304;52.216;6.874;2023-01-30T15:02:36;101433.63;;;6.04;100.00
51229;BME280;37304;52.216;6.874;2023-01-30T15:07:49;101448.25;;;6.04;100.00
51229;BME280;37304;52.216;6.874;2023-01-30T15:18:54;101461.06;;;5.97;100.00
51229;BME280;37304;52.216;6.874;2023-01-30T15:29:24;101485.91;;;5.91;100.00
51229;BME280;37304;52.216;6.874;2023-01-30T15:34:31;101491.88;;;5.88;100.00
51229;BME280;37304;52.216;6.874;2023-01-30T15:39:33;101505.56;;;5.84;100.00
51229;BME280;37304;52.216;6.874;2023-01-30T15:44:48;101508.16;;;5.82;100.00
51229;BME280;37304;52.216;6.874;2023-01-30T15:50:01;101525.28;;;5.77;100.00
51229;BME280;37304;52.216;6.874;2023-01-30T15:55:02;101539.78;;;5.69;100.00
51229;BME280;37304;52.216;6.874;2023-01-30T16:00:06;101544.91;;;5.66;100.00
51229;BME280;37304;52.216;6.874;2023-01-30T16:05:15;101567.22;;;5.64;100.00
51229;BME280;37304;52.216;6.874;2023-01-30T16:10:20;101583.44;;;5.60;100.00
51229;BME280;37304;52.216;6.874;2023-01-30T16:20:43;101603.97;;;5.53;100.00
51229;BME280;37304;52.216;6.874;2023-01-30T16:25:45;101602.19;;;5.48;100.00
51229;BME280;37304;52.216;6.874;2023-01-30T16:30:46;101621.88;;;5.44;100.00
51229;BME280;37304;52.216;6.874;2023-01-30T16:35:47;101634.75;;;5.43;100.00
51229;BME280;37304;52.216;6.874;2023-01-30T16:40:47;101643.28;;;5.40;100.00
51229;BME280;37304;52.216;6.874;2023-01-30T16:56:02;101684.41;;;5.32;100.00
51229;BME280;37304;52.216;6.874;2023-01-30T17:01:06;101693.72;;;5.27;100.00
51229;BME280;37304;52.216;6.874;2023-01-30T17:06:09;101703.97;;;5.24;100.00
51229;BME280;37304;52.216;6.874;2023-01-30T17:11:37;101716.81;;;5.21;100.00
51229;BME280;37304;52.216;6.874;2023-01-30T17:16:37;101720.94;;;5.11;100.00
51229;BME280;37304;52.216;6.874;2023-01-30T17:21:48;101731.13;;;5.05;100.00
51229;BME280;37304;52.216;6.874;2023-01-30T17:26:52;101740.31;;;4.93;100.00
51229;BME280;37304;52.216;6.874;2023-01-30T17:31:53;101742.69;;;4.84;100.00
51229;BME280;37304;52.216;6.874;2023-01-30T17:36:54;101756.28;;;4.77;100.00
51229;BME280;37304;52.216;6.874;2023-01-30T17:41:55;101775.06;;;4.73;100.00
51229;BME280;37304;52.216;6.874;2023-01-30T17:46:55;101767.00;;;4.57;100.00
51229;BME280;37304;52.216;6.874;2023-01-30T17:51:55;101776.09;;;4.43;100.00
51229;BME280;37304;52.216;6.874;2023-01-30T17:57:00;101783.56;;;4.32;100.00
51229;BME280;37304;52.216;6.874;2023-01-30T18:02:01;101788.84;;;4.36;100.00
51229;BME280;37304;52.216;6.874;2023-01-30T18:07:03;101802.75;;;4.45;100.00
51229;BME280;37304;52.216;6.874;2023-01-30T18:12:05;101801.16;;;4.50;100.00
51229;BME280;37304;52.216;6.874;2023-01-30T18:17:05;101809.41;;;4.36;100.00
51229;BME280;37304;52.216;6.874;2023-01-30T18:22:06;101795.38;;;4.25;100.00
51229;BME280;37304;52.216;6.874;2023-01-30T18:27:06;101806.34;;;4.16;100.00
51229;BME280;37304;52.216;6.874;2023-01-30T18:32:06;101820.66;;;4.06;100.00
51229;BME280;37304;52.216;6.874;2023-01-30T18:37:07;101821.19;;;3.94;100.00
51229;BME280;37304;52.216;6.874;2023-01-30T18:42:07;101831.47;;;3.93;100.00
51229;BME280;37304;52.216;6.874;2023-01-30T18:47:07;101830.31;;;3.83;100.00
51229;BME280;37304;52.216;6.874;2023-01-30T18:52:08;101818.19;;;3.77;100.00
51229;BME280;37304;52.216;6.874;2023-01-30T18:57:08;101834.38;;;3.73;100.00
51229;BME280;37304;52.216;6.874;2023-01-30T19:02:12;101838.63;;;3.73;100.00
51229;BME280;37304;52.216;6.874;2023-01-30T19:07:15;101839.28;;;3.66;100.00
51229;BME280;37304;52.216;6.874;2023-01-30T19:12:16;101839.13;;;3.61;100.00
51229;BME280;37304;52.216;6.874;2023-01-30T19:17:34;101849.25;;;3.55;100.00
51229;BME280;37304;52.216;6.874;2023-01-30T19:22:35;101857.69;;;3.50;100.00
51229;BME280;37304;52.216;6.874;2023-01-30T19:27:36;101851.56;;;3.45;100.00
51229;BME280;37304;52.216;6.874;2023-01-30T19:32:37;101866.06;;;3.43;100.00
51229;BME280;37304;52.216;6.874;2023-01-30T19:37:38;101860.91;;;3.42;100.00
51229;BME280;37304;52.216;6.874;2023-01-30T19:42:38;101875.25;;;3.35;100.00
51229;BME280;37304;52.216;6.874;2023-01-30T19:47:39;101872.69;;;3.35;100.00
51229;BME280;37304;52.216;6.874;2023-01-30T19:52:39;101875.31;;;3.37;100.00
51229;BME280;37304;52.216;6.874;2023-01-30T19:57:40;101889.75;;;3.33;100.00
51229;BME280;37304;52.216;6.874;2023-01-30T20:02:40;101897.72;;;3.42;100.00
51229;BME280;37304;52.216;6.874;2023-01-30T20:07:41;101915.25;;;3.56;100.00
51229;BME280;37304;52.216;6.874;2023-01-30T20:12:41;101913.06;;;3.68;100.00
51229;BME280;37304;52.216;6.874;2023-01-30T20:17:42;101919.94;;;3.69;100.00
51229;BME280;37304;52.216;6.874;2023-01-30T20:22:42;101935.22;;;3.64;100.00
51229;BME280;37304;52.216;6.874;2023-01-30T20:27:43;101920.28;;;3.53;100.00
51229;BME280;37304;52.216;6.874;2023-01-30T20:32:44;101932.84;;;3.42;100.00
51229;BME280;37304;52.216;6.874;2023-01-30T20:37:44;101927.38;;;3.31;100.00
51229;BME280;37304;52.216;6.874;2023-01-30T20:42:45;101934.00;;;3.24;100.00
51229;BME280;37304;52.216;6.874;2023-01-30T20:47:46;101948.47;;;3.20;100.00
51229;BME280;37304;52.216;6.874;2023-01-30T20:52:48;101955.97;;;3.14;100.00
51229;BME280;37304;52.216;6.874;2023-01-30T20:57:51;101937.00;;;3.11;100.00
51229;BME280;37304;52.216;6.874;2023-01-30T21:02:51;101943.41;;;2.96;100.00
51229;BME280;37304;52.216;6.874;2023-01-30T21:07:52;101951.03;;;2.95;100.00
51229;BME280;37304;52.216;6.874;2023-01-30T21:12:52;101961.13;;;2.88;100.00
51229;BME280;37304;52.216;6.874;2023-01-30T21:17:52;101970.25;;;2.80;100.00
51229;BME280;37304;52.216;6.874;2023-01-30T21:22:53;101985.56;;;2.77;100.00
51229;BME280;37304;52.216;6.874;2023-01-30T21:27:53;101988.84;;;2.73;100.00
51229;BME280;37304;52.216;6.874;2023-01-30T21:32:55;101986.06;;;2.67;100.00
51229;BME280;37304;52.216;6.874;2023-01-30T21:37:57;101991.91;;;2.62;100.00
51229;BME280;37304;52.216;6.874;2023-01-30T21:43:15;102005.41;;;2.57;100.00
51229;BME280;37304;52.216;6.874;2023-01-30T21:48:16;102001.03;;;2.54;100.00
51229;BME280;37304;52.216;6.874;2023-01-30T21:53:16;101999.13;;;2.48;100.00
51229;BME280;37304;52.216;6.874;2023-01-30T21:58:17;101998.19;;;2.46;100.00
51229;BME280;37304;52.216;6.874;2023-01-30T22:03:18;102003.19;;;2.42;100.00
51229;BME280;37304;52.216;6.874;2023-01-30T22:08:20;101999.63;;;2.38;100.00
51229;BME280;37304;52.216;6.874;2023-01-30T22:13:20;101991.09;;;2.39;100.00
51229;BME280;37304;52.216;6.874;2023-01-30T22:18:20;102002.84;;;2.32;100.00
51229;BME280;37304;52.216;6.874;2023-01-30T22:23:21;101999.47;;;2.33;100.00
51229;BME280;37304;52.216;6.874;2023-01-30T22:28:21;101996.72;;;2.29;100.00
51229;BME280;37304;52.216;6.874;2023-01-30T22:33:23;102019.81;;;2.29;100.00
51229;BME280;37304;52.216;6.874;2023-01-30T22:38:23;102026.50;;;2.25;100.00
51229;BME280;37304;52.216;6.874;2023-01-30T22:43:24;102028.97;;;2.22;100.00
51229;BME280;37304;52.216;6.874;2023-01-30T22:48:25;102020.41;;;2.22;100.00
51229;BME280;37304;52.216;6.874;2023-01-30T22:53:26;102016.63;;;2.12;100.00
51229;BME280;37304;52.216;6.874;2023-01-30T22:58:26;102024.09;;;2.06;100.00
51229;BME280;37304;52.216;6.874;2023-01-30T23:03:28;102030.00;;;2.03;100.00
51229;BME280;37304;52.216;6.874;2023-01-30T23:08:30;102030.44;;;1.93;100.00
51229;BME280;37304;52.216;6.874;2023-01-30T23:13:31;102040.34;;;1.83;100.00
51229;BME280;37304;52.216;6.874;2023-01-30T23:18:32;102035.84;;;1.78;100.00
51229;BME280;37304;52.216;6.874;2023-01-30T23:23:52;102032.97;;;1.70;100.00
51229;BME280;37304;52.216;6.874;2023-01-30T23:28:53;102032.63;;;1.60;100.00
51229;BME280;37304;52.216;6.874;2023-01-30T23:33:55;102041.63;;;1.51;100.00
51229;BME280;37304;52.216;6.874;2023-01-30T23:38:57;102038.13;;;1.49;100.00
51229;BME280;37304;52.216;6.874;2023-01-30T23:43:59;102046.38;;;1.41;100.00
51229;BME280;37304;52.216;6.874;2023-01-30T23:49:05;102046.00;;;1.32;100.00
51229;BME280;37304;52.216;6.874;2023-01-30T23:54:06;102031.91;;;1.21;100.00
51229;BME280;37304;52.216;6.874;2023-01-30T23:59:07;102026.53;;;1.14;100.00
